sensor_id;sensor_type;location;lat;lon;timestamp;P1;durP1;ratioP1;P2;durP2;ratioP2
6864;SDS011;3471;49.678;8.388;2022-11-20T00:00:24;19.57;;;13.33;;
6864;SDS011;3471;49.678;8.388;2022-11-20T00:02:49;26.10;;;17.45;;
6864;SDS011;3471;49.678;8.388;2022-11-20T00:05:15;25.10;;;16.07;;
6864;SDS011;3471;49.678;8.388;2022-11-20T00:07:40;18.08;;;12.90;;
6864;SDS011;3471;49.678;8.388;2022-11-20T00:10:06;17.03;;;13.80;;
6864;SDS011;3471;49.678;8.388;2022-11-20T00:12:32;16.90;;;13.65;;
6864;SDS011;3471;49.678;8.388;2022-11-20T00:14:58;22.60;;;14.30;;
6864;SDS011;3471;49.678;8.388;2022-11-20T00:17:23;21.20;;;13.67;;
6864;SDS011;3471;49.678;8.388;2022-11-20T00:19:49;22.38;;;14.43;;
6864;SDS011;3471;49.678;8.388;2022-11-20T00:22:14;21.57;;;14.30;;
6864;SDS011;3471;49.678;8.388;2022-11-20T00:24:40;22.10;;;15.90;;
6864;SDS011;3471;49.678;8.388;2022-11-20T00:27:05;19.73;;;15.50;;
6864;SDS011;3471;49.678;8.388;2022-11-20T00:29:31;19.03;;;15.03;;
6864;SDS011;3471;49.678;8.388;2022-11-20T00:31:56;19.30;;;12.73;;
6864;SDS011;3471;49.678;8.388;2022-11-20T00:34:22;23.67;;;14.73;;
6864;SDS011;3471;49.678;8.388;2022-11-20T00:36:47;16.63;;;12.85;;
6864;SDS011;3471;49.678;8.388;2022-11-20T00:39:13;24.10;;;15.40;;
6864;SDS011;3471;49.678;8.388;2022-11-20T00:41:39;22.25;;;14.07;;
6864;SDS011;3471;49.678;8.388;2022-11-20T00:44:04;21.10;;;15.20;;
6864;SDS011;3471;49.678;8.388;2022-11-20T00:46:30;18.70;;;13.45;;
6864;SDS011;3471;49.678;8.388;2022-11-20T00:48:55;26.03;;;17.10;;
6864;SDS011;3471;49.678;8.388;2022-11-20T00:51:22;21.80;;;14.65;;
6864;SDS011;3471;49.678;8.388;2022-11-20T00:53:49;21.27;;;14.50;;
6864;SDS011;3471;49.678;8.388;2022-11-20T00:56:16;22.98;;;14.32;;
6864;SDS011;3471;49.678;8.388;2022-11-20T00:58:43;23.67;;;13.50;;
6864;SDS011;3471;49.678;8.388;2022-11-20T01:01:12;21.33;;;15.20;;
6864;SDS011;3471;49.678;8.388;2022-11-20T01:03:49;21.20;;;14.20;;
6864;SDS011;3471;49.678;8.388;2022-11-20T01:06:26;18.77;;;11.45;;
6864;SDS011;3471;49.678;8.388;2022-11-20T01:08:54;18.10;;;13.57;;
6864;SDS011;3471;49.678;8.388;2022-11-20T01:11:23;19.60;;;14.02;;
6864;SDS011;3471;49.678;8.388;2022-11-20T01:13:54;27.25;;;15.50;;
6864;SDS011;3471;49.678;8.388;2022-11-20T01:16:25;17.48;;;11.48;;
6864;SDS011;3471;49.678;8.388;2022-11-20T01:18:56;22.13;;;14.30;;
6864;SDS011;3471;49.678;8.388;2022-11-20T01:21:28;16.25;;;13.13;;
6864;SDS011;3471;49.678;8.388;2022-11-20T01:23:58;20.90;;;14.27;;
6864;SDS011;3471;49.678;8.388;2022-11-20T01:26:28;16.67;;;11.85;;
6864;SDS011;3471;49.678;8.388;2022-11-20T01:28:56;19.00;;;13.43;;
6864;SDS011;3471;49.678;8.388;2022-11-20T01:31:26;21.13;;;13.05;;
6864;SDS011;3471;49.678;8.388;2022-11-20T01:33:55;24.80;;;14.27;;
6864;SDS011;3471;49.678;8.388;2022-11-20T01:36:24;16.80;;;14.32;;
6864;SDS011;3471;49.678;8.388;2022-11-20T01:38:51;21.45;;;12.75;;
6864;SDS011;3471;49.678;8.388;2022-11-20T01:41:18;21.55;;;13.07;;
6864;SDS011;3471;49.678;8.388;2022-11-20T01:44:04;19.02;;;13.07;;
6864;SDS011;3471;49.678;8.388;2022-11-20T01:46:33;21.55;;;15.52;;
6864;SDS011;3471;49.678;8.388;2022-11-20T01:49:04;14.68;;;11.63;;
6864;SDS011;3471;49.678;8.388;2022-11-20T01:51:50;18.77;;;12.77;;
6864;SDS011;3471;49.678;8.388;2022-11-20T01:54:40;17.80;;;13.20;;
6864;SDS011;3471;49.678;8.388;2022-11-20T01:57:11;25.05;;;13.55;;
6864;SDS011;3471;49.678;8.388;2022-11-20T01:59:44;30.30;;;13.00;;
6864;SDS011;3471;49.678;8.388;2022-11-20T02:02:17;16.92;;;11.07;;
6864;SDS011;3471;49.678;8.388;2022-11-20T02:04:44;20.45;;;13.80;;
6864;SDS011;3471;49.678;8.388;2022-11-20T02:07:09;20.70;;;13.60;;
6864;SDS011;3471;49.678;8.388;2022-11-20T02:09:36;20.20;;;11.85;;
6864;SDS011;3471;49.678;8.388;2022-11-20T02:12:02;16.40;;;11.00;;
6864;SDS011;3471;49.678;8.388;2022-11-20T02:14:28;19.83;;;10.85;;
6864;SDS011;3471;49.678;8.388;2022-11-20T02:16:54;20.90;;;15.83;;
6864;SDS011;3471;49.678;8.388;2022-11-20T02:19:27;19.55;;;12.90;;
6864;SDS011;3471;49.678;8.388;2022-11-20T02:24:30;27.73;;;12.77;;
6864;SDS011;3471;49.678;8.388;2022-11-20T02:27:00;16.17;;;12.68;;
6864;SDS011;3471;49.678;8.388;2022-11-20T02:32:21;17.20;;;11.85;;
6864;SDS011;3471;49.678;8.388;2022-11-20T02:34:58;18.35;;;12.77;;
6864;SDS011;3471;49.678;8.388;2022-11-20T02:37:32;20.13;;;12.63;;
6864;SDS011;3471;49.678;8.388;2022-11-20T02:40:01;22.77;;;15.15;;
6864;SDS011;3471;49.678;8.388;2022-11-20T02:42:26;14.03;;;10.33;;
6864;SDS011;3471;49.678;8.388;2022-11-20T02:44:52;17.40;;;12.70;;
6864;SDS011;3471;49.678;8.388;2022-11-20T02:47:18;17.37;;;10.60;;
6864;SDS011;3471;49.678;8.388;2022-11-20T02:49:43;18.05;;;10.80;;
6864;SDS011;3471;49.678;8.388;2022-11-20T02:52:09;21.47;;;13.23;;
6864;SDS011;3471;49.678;8.388;2022-11-20T02:54:34;17.85;;;12.27;;
6864;SDS011;3471;49.678;8.388;2022-11-20T02:57:00;20.67;;;14.50;;
6864;SDS011;3471;49.678;8.388;2022-11-20T02:59:25;17.37;;;12.10;;
6864;SDS011;3471;49.678;8.388;2022-11-20T03:01:51;21.15;;;12.88;;
6864;SDS011;3471;49.678;8.388;2022-11-20T03:04:16;13.50;;;10.73;;
6864;SDS011;3471;49.678;8.388;2022-11-20T03:06:42;13.80;;;9.63;;
6864;SDS011;3471;49.678;8.388;2022-11-20T03:09:07;18.63;;;11.93;;
6864;SDS011;3471;49.678;8.388;2022-11-20T03:11:34;13.50;;;11.70;;
6864;SDS011;3471;49.678;8.388;2022-11-20T03:14:03;31.98;;;11.48;;
6864;SDS011;3471;49.678;8.388;2022-11-20T03:16:30;19.88;;;14.10;;
6864;SDS011;3471;49.678;8.388;2022-11-20T03:18:56;15.57;;;10.07;;
6864;SDS011;3471;49.678;8.388;2022-11-20T03:21:22;15.20;;;11.07;;
6864;SDS011;3471;49.678;8.388;2022-11-20T03:23:48;14.45;;;12.07;;
6864;SDS011;3471;49.678;8.388;2022-11-20T03:26:18;16.10;;;11.90;;
6864;SDS011;3471;49.678;8.388;2022-11-20T03:28:47;17.73;;;13.00;;
6864;SDS011;3471;49.678;8.388;2022-11-20T03:31:14;15.48;;;10.45;;
6864;SDS011;3471;49.678;8.388;2022-11-20T03:33:41;17.27;;;11.88;;
6864;SDS011;3471;49.678;8.388;2022-11-20T03:36:09;16.33;;;10.43;;
6864;SDS011;3471;49.678;8.388;2022-11-20T03:38:37;12.30;;;9.05;;
6864;SDS011;3471;49.678;8.388;2022-11-20T03:41:04;20.45;;;11.32;;
6864;SDS011;3471;49.678;8.388;2022-11-20T03:43:31;16.25;;;12.15;;
6864;SDS011;3471;49.678;8.388;2022-11-20T03:45:57;19.95;;;12.15;;
6864;SDS011;3471;49.678;8.388;2022-11-20T03:48:23;17.80;;;10.43;;
6864;SDS011;3471;49.678;8.388;2022-11-20T03:50:49;20.13;;;11.88;;
6864;SDS011;3471;49.678;8.388;2022-11-20T03:53:15;20.47;;;12.73;;
6864;SDS011;3471;49.678;8.388;2022-11-20T03:55:41;19.48;;;12.82;;
6864;SDS011;3471;49.678;8.388;2022-11-20T03:58:06;16.65;;;10.77;;
6864;SDS011;3471;49.678;8.388;2022-11-20T04:00:32;16.17;;;11.90;;
6864;SDS011;3471;49.678;8.388;2022-11-20T04:02:58;15.00;;;10.50;;
6864;SDS011;3471;49.678;8.388;2022-11-20T04:05:24;21.80;;;13.65;;
6864;SDS011;3471;49.678;8.388;2022-11-20T04:07:50;16.23;;;11.63;;
6864;SDS011;3471;49.678;8.388;2022-11-20T04:10:15;20.60;;;12.43;;
6864;SDS011;3471;49.678;8.388;2022-11-20T04:12:41;16.63;;;11.82;;
6864;SDS011;3471;49.678;8.388;2022-11-20T04:15:06;14.13;;;9.70;;
6864;SDS011;3471;49.678;8.388;2022-11-20T04:17:32;13.68;;;11.07;;
6864;SDS011;3471;49.678;8.388;2022-11-20T04:19:58;21.37;;;12.80;;
6864;SDS011;3471;49.678;8.388;2022-11-20T04:22:23;11.35;;;9.45;;
6864;SDS011;3471;49.678;8.388;2022-11-20T04:24:49;18.00;;;12.97;;
6864;SDS011;3471;49.678;8.388;2022-11-20T04:27:14;16.80;;;11.23;;
6864;SDS011;3471;49.678;8.388;2022-11-20T04:29:40;20.47;;;12.43;;
6864;SDS011;3471;49.678;8.388;2022-11-20T04:32:05;14.83;;;9.87;;
6864;SDS011;3471;49.678;8.388;2022-11-20T04:34:31;15.60;;;11.40;;
6864;SDS011;3471;49.678;8.388;2022-11-20T04:36:57;18.70;;;14.20;;
6864;SDS011;3471;49.678;8.388;2022-11-20T04:39:22;18.80;;;10.88;;
6864;SDS011;3471;49.678;8.388;2022-11-20T04:41:48;15.83;;;11.50;;
6864;SDS011;3471;49.678;8.388;2022-11-20T04:44:33;13.55;;;10.00;;
6864;SDS011;3471;49.678;8.388;2022-11-20T04:46:59;12.10;;;9.33;;
6864;SDS011;3471;49.678;8.388;2022-11-20T04:49:24;18.23;;;11.87;;
6864;SDS011;3471;49.678;8.388;2022-11-20T04:51:53;15.85;;;10.07;;
6864;SDS011;3471;49.678;8.388;2022-11-20T04:54:18;15.30;;;9.52;;
6864;SDS011;3471;49.678;8.388;2022-11-20T04:56:47;17.80;;;11.18;;
6864;SDS011;3471;49.678;8.388;2022-11-20T04:59:12;13.40;;;10.43;;
6864;SDS011;3471;49.678;8.388;2022-11-20T05:01:38;12.02;;;9.40;;
6864;SDS011;3471;49.678;8.388;2022-11-20T05:04:04;18.37;;;10.57;;
6864;SDS011;3471;49.678;8.388;2022-11-20T05:06:30;14.05;;;10.10;;
6864;SDS011;3471;49.678;8.388;2022-11-20T05:08:56;12.30;;;8.33;;
6864;SDS011;3471;49.678;8.388;2022-11-20T05:11:22;18.23;;;8.50;;
6864;SDS011;3471;49.678;8.388;2022-11-20T05:13:48;14.17;;;9.90;;
6864;SDS011;3471;49.678;8.388;2022-11-20T05:16:15;17.48;;;11.38;;
6864;SDS011;3471;49.678;8.388;2022-11-20T05:18:43;13.55;;;10.65;;
6864;SDS011;3471;49.678;8.388;2022-11-20T05:21:09;17.48;;;10.52;;
6864;SDS011;3471;49.678;8.388;2022-11-20T05:23:36;12.63;;;11.30;;
6864;SDS011;3471;49.678;8.388;2022-11-20T05:26:02;15.25;;;7.97;;
6864;SDS011;3471;49.678;8.388;2022-11-20T05:28:29;15.27;;;9.77;;
6864;SDS011;3471;49.678;8.388;2022-11-20T05:30:55;15.07;;;12.83;;
6864;SDS011;3471;49.678;8.388;2022-11-20T05:33:28;17.20;;;10.52;;
6864;SDS011;3471;49.678;8.388;2022-11-20T05:35:57;15.15;;;11.00;;
6864;SDS011;3471;49.678;8.388;2022-11-20T05:38:23;15.88;;;11.75;;
6864;SDS011;3471;49.678;8.388;2022-11-20T05:40:48;11.87;;;8.10;;
6864;SDS011;3471;49.678;8.388;2022-11-20T05:43:14;14.63;;;9.43;;
6864;SDS011;3471;49.678;8.388;2022-11-20T05:45:39;17.50;;;10.77;;
6864;SDS011;3471;49.678;8.388;2022-11-20T05:48:05;11.98;;;9.60;;
6864;SDS011;3471;49.678;8.388;2022-11-20T05:50:30;16.03;;;10.60;;
6864;SDS011;3471;49.678;8.388;2022-11-20T05:52:59;13.57;;;9.37;;
6864;SDS011;3471;49.678;8.388;2022-11-20T05:55:25;10.77;;;7.70;;
6864;SDS011;3471;49.678;8.388;2022-11-20T05:57:52;13.10;;;9.85;;
6864;SDS011;3471;49.678;8.388;2022-11-20T06:00:19;15.75;;;11.40;;
6864;SDS011;3471;49.678;8.388;2022-11-20T06:02:45;13.65;;;10.18;;
6864;SDS011;3471;49.678;8.388;2022-11-20T06:05:11;15.00;;;10.50;;
6864;SDS011;3471;49.678;8.388;2022-11-20T06:07:36;15.48;;;12.77;;
6864;SDS011;3471;49.678;8.388;2022-11-20T06:10:02;11.20;;;9.97;;
6864;SDS011;3471;49.678;8.388;2022-11-20T06:12:28;15.48;;;10.93;;
6864;SDS011;3471;49.678;8.388;2022-11-20T06:14:53;18.97;;;13.33;;
6864;SDS011;3471;49.678;8.388;2022-11-20T06:17:19;15.05;;;9.75;;
6864;SDS011;3471;49.678;8.388;2022-11-20T06:19:44;19.90;;;10.40;;
6864;SDS011;3471;49.678;8.388;2022-11-20T06:22:10;12.75;;;9.95;;
6864;SDS011;3471;49.678;8.388;2022-11-20T06:24:35;19.50;;;12.67;;
6864;SDS011;3471;49.678;8.388;2022-11-20T06:27:01;18.60;;;10.03;;
6864;SDS011;3471;49.678;8.388;2022-11-20T06:29:26;21.90;;;13.05;;
6864;SDS011;3471;49.678;8.388;2022-11-20T06:31:52;16.33;;;11.93;;
6864;SDS011;3471;49.678;8.388;2022-11-20T06:34:18;19.80;;;11.97;;
6864;SDS011;3471;49.678;8.388;2022-11-20T06:36:44;17.48;;;14.45;;
6864;SDS011;3471;49.678;8.388;2022-11-20T06:39:09;18.30;;;12.50;;
6864;SDS011;3471;49.678;8.388;2022-11-20T06:41:35;20.58;;;13.05;;
6864;SDS011;3471;49.678;8.388;2022-11-20T06:44:00;18.80;;;12.53;;
6864;SDS011;3471;49.678;8.388;2022-11-20T06:46:26;14.77;;;10.83;;
6864;SDS011;3471;49.678;8.388;2022-11-20T06:48:52;14.23;;;11.18;;
6864;SDS011;3471;49.678;8.388;2022-11-20T06:51:17;13.05;;;9.25;;
6864;SDS011;3471;49.678;8.388;2022-11-20T06:53:43;20.23;;;13.23;;
6864;SDS011;3471;49.678;8.388;2022-11-20T06:56:09;18.73;;;10.23;;
6864;SDS011;3471;49.678;8.388;2022-11-20T06:58:35;13.98;;;11.82;;
6864;SDS011;3471;49.678;8.388;2022-11-20T07:01:20;18.50;;;11.20;;
6864;SDS011;3471;49.678;8.388;2022-11-20T07:03:48;14.75;;;10.93;;
6864;SDS011;3471;49.678;8.388;2022-11-20T07:06:15;13.75;;;12.18;;
6864;SDS011;3471;49.678;8.388;2022-11-20T07:08:41;15.10;;;11.65;;
6864;SDS011;3471;49.678;8.388;2022-11-20T07:11:07;16.73;;;12.30;;
6864;SDS011;3471;49.678;8.388;2022-11-20T07:13:33;13.95;;;11.05;;
6864;SDS011;3471;49.678;8.388;2022-11-20T07:15:59;15.45;;;13.30;;
6864;SDS011;3471;49.678;8.388;2022-11-20T07:18:26;17.35;;;11.30;;
6864;SDS011;3471;49.678;8.388;2022-11-20T07:20:52;19.13;;;13.60;;
6864;SDS011;3471;49.678;8.388;2022-11-20T07:23:17;23.77;;;11.27;;
6864;SDS011;3471;49.678;8.388;2022-11-20T07:25:43;17.58;;;12.63;;
6864;SDS011;3471;49.678;8.388;2022-11-20T07:28:09;22.20;;;13.82;;
6864;SDS011;3471;49.678;8.388;2022-11-20T07:30:35;18.08;;;13.00;;
6864;SDS011;3471;49.678;8.388;2022-11-20T07:33:01;22.80;;;14.93;;
6864;SDS011;3471;49.678;8.388;2022-11-20T07:35:27;19.53;;;14.03;;
6864;SDS011;3471;49.678;8.388;2022-11-20T07:37:52;18.02;;;13.57;;
6864;SDS011;3471;49.678;8.388;2022-11-20T07:40:18;25.00;;;16.60;;
6864;SDS011;3471;49.678;8.388;2022-11-20T07:42:48;19.17;;;13.80;;
6864;SDS011;3471;49.678;8.388;2022-11-20T07:45:14;21.92;;;13.80;;
6864;SDS011;3471;49.678;8.388;2022-11-20T07:47:40;30.33;;;13.20;;
6864;SDS011;3471;49.678;8.388;2022-11-20T07:50:05;20.92;;;14.30;;
6864;SDS011;3471;49.678;8.388;2022-11-20T07:52:32;11.45;;;9.73;;
6864;SDS011;3471;49.678;8.388;2022-11-20T07:54:57;18.60;;;11.90;;
6864;SDS011;3471;49.678;8.388;2022-11-20T07:57:23;23.10;;;14.53;;
6864;SDS011;3471;49.678;8.388;2022-11-20T07:59:49;11.80;;;10.63;;
6864;SDS011;3471;49.678;8.388;2022-11-20T08:02:14;20.80;;;15.17;;
6864;SDS011;3471;49.678;8.388;2022-11-20T08:04:40;23.13;;;14.60;;
6864;SDS011;3471;49.678;8.388;2022-11-20T08:07:05;16.27;;;13.97;;
6864;SDS011;3471;49.678;8.388;2022-11-20T08:09:31;15.70;;;10.40;;
6864;SDS011;3471;49.678;8.388;2022-11-20T08:11:57;17.20;;;12.00;;
6864;SDS011;3471;49.678;8.388;2022-11-20T08:14:41;16.83;;;12.10;;
6864;SDS011;3471;49.678;8.388;2022-11-20T08:17:06;21.97;;;14.80;;
6864;SDS011;3471;49.678;8.388;2022-11-20T08:19:32;22.27;;;14.77;;
6864;SDS011;3471;49.678;8.388;2022-11-20T08:21:58;21.40;;;15.63;;
6864;SDS011;3471;49.678;8.388;2022-11-20T08:24:23;16.40;;;13.07;;
6864;SDS011;3471;49.678;8.388;2022-11-20T08:26:51;15.27;;;11.90;;
6864;SDS011;3471;49.678;8.388;2022-11-20T08:29:16;16.47;;;12.77;;
6864;SDS011;3471;49.678;8.388;2022-11-20T08:31:42;19.50;;;11.07;;
6864;SDS011;3471;49.678;8.388;2022-11-20T08:34:08;17.80;;;12.23;;
6864;SDS011;3471;49.678;8.388;2022-11-20T08:36:33;17.97;;;13.17;;
6864;SDS011;3471;49.678;8.388;2022-11-20T08:38:59;16.42;;;11.00;;
6864;SDS011;3471;49.678;8.388;2022-11-20T08:41:26;15.43;;;11.70;;
6864;SDS011;3471;49.678;8.388;2022-11-20T08:43:56;16.83;;;11.68;;
6864;SDS011;3471;49.678;8.388;2022-11-20T08:46:23;13.68;;;11.30;;
6864;SDS011;3471;49.678;8.388;2022-11-20T08:48:50;17.35;;;13.02;;
6864;SDS011;3471;49.678;8.388;2022-11-20T08:51:15;15.37;;;11.10;;
6864;SDS011;3471;49.678;8.388;2022-11-20T08:53:41;21.75;;;14.75;;
6864;SDS011;3471;49.678;8.388;2022-11-20T08:56:07;18.90;;;13.13;;
6864;SDS011;3471;49.678;8.388;2022-11-20T08:58:34;19.23;;;12.25;;
6864;SDS011;3471;49.678;8.388;2022-11-20T09:01:00;14.45;;;12.50;;
6864;SDS011;3471;49.678;8.388;2022-11-20T09:03:26;26.15;;;12.57;;
6864;SDS011;3471;49.678;8.388;2022-11-20T09:05:59;12.85;;;9.48;;
6864;SDS011;3471;49.678;8.388;2022-11-20T09:08:25;15.60;;;13.82;;
6864;SDS011;3471;49.678;8.388;2022-11-20T09:10:53;23.42;;;11.07;;
6864;SDS011;3471;49.678;8.388;2022-11-20T09:13:20;16.25;;;9.70;;
6864;SDS011;3471;49.678;8.388;2022-11-20T09:15:46;16.27;;;10.15;;
6864;SDS011;3471;49.678;8.388;2022-11-20T09:18:12;12.90;;;9.33;;
6864;SDS011;3471;49.678;8.388;2022-11-20T09:20:37;17.35;;;10.50;;
6864;SDS011;3471;49.678;8.388;2022-11-20T09:23:03;18.20;;;12.43;;
6864;SDS011;3471;49.678;8.388;2022-11-20T09:25:29;19.60;;;12.15;;
6864;SDS011;3471;49.678;8.388;2022-11-20T09:27:58;11.70;;;10.17;;
6864;SDS011;3471;49.678;8.388;2022-11-20T09:30:24;19.40;;;13.55;;
6864;SDS011;3471;49.678;8.388;2022-11-20T09:32:50;14.90;;;12.30;;
6864;SDS011;3471;49.678;8.388;2022-11-20T09:35:16;14.10;;;10.27;;
6864;SDS011;3471;49.678;8.388;2022-11-20T09:37:42;18.42;;;12.48;;
6864;SDS011;3471;49.678;8.388;2022-11-20T09:40:25;16.52;;;11.40;;
6864;SDS011;3471;49.678;8.388;2022-11-20T09:45:44;15.82;;;11.65;;
6864;SDS011;3471;49.678;8.388;2022-11-20T09:54:13;20.50;;;11.93;;
6864;SDS011;3471;49.678;8.388;2022-11-20T09:56:45;16.40;;;9.80;;
6864;SDS011;3471;49.678;8.388;2022-11-20T09:59:26;18.63;;;12.63;;
6864;SDS011;3471;49.678;8.388;2022-11-20T10:01:57;14.95;;;11.18;;
6864;SDS011;3471;49.678;8.388;2022-11-20T10:04:24;18.60;;;11.98;;
6864;SDS011;3471;49.678;8.388;2022-11-20T10:09:37;15.10;;;10.80;;
6864;SDS011;3471;49.678;8.388;2022-11-20T10:12:25;22.80;;;12.00;;
6864;SDS011;3471;49.678;8.388;2022-11-20T10:15:09;32.03;;;13.27;;
6864;SDS011;3471;49.678;8.388;2022-11-20T10:20:22;20.70;;;13.73;;
6864;SDS011;3471;49.678;8.388;2022-11-20T10:25:26;19.98;;;11.55;;
6864;SDS011;3471;49.678;8.388;2022-11-20T10:30:55;16.30;;;11.60;;
6864;SDS011;3471;49.678;8.388;2022-11-20T10:33:29;15.55;;;12.50;;
6864;SDS011;3471;49.678;8.388;2022-11-20T10:38:57;16.13;;;10.30;;
6864;SDS011;3471;49.678;8.388;2022-11-20T10:41:27;14.38;;;9.75;;
6864;SDS011;3471;49.678;8.388;2022-11-20T10:44:04;29.40;;;17.90;;
6864;SDS011;3471;49.678;8.388;2022-11-20T10:46:38;19.20;;;11.75;;
6864;SDS011;3471;49.678;8.388;2022-11-20T10:49:12;18.65;;;12.65;;
6864;SDS011;3471;49.678;8.388;2022-11-20T10:56:50;15.00;;;10.43;;
6864;SDS011;3471;49.678;8.388;2022-11-20T11:02:22;17.55;;;11.55;;
6864;SDS011;3471;49.678;8.388;2022-11-20T11:04:52;29.93;;;20.27;;
6864;SDS011;3471;49.678;8.388;2022-11-20T11:07:21;12.98;;;9.48;;
6864;SDS011;3471;49.678;8.388;2022-11-20T11:10:00;13.10;;;11.70;;
6864;SDS011;3471;49.678;8.388;2022-11-20T11:12:27;23.23;;;11.55;;
6864;SDS011;3471;49.678;8.388;2022-11-20T11:14:54;13.60;;;10.05;;
6864;SDS011;3471;49.678;8.388;2022-11-20T11:20:19;17.27;;;10.60;;
6864;SDS011;3471;49.678;8.388;2022-11-20T11:22:45;33.53;;;14.52;;
6864;SDS011;3471;49.678;8.388;2022-11-20T11:25:24;20.48;;;12.25;;
6864;SDS011;3471;49.678;8.388;2022-11-20T11:27:54;18.25;;;12.98;;
6864;SDS011;3471;49.678;8.388;2022-11-20T11:30:21;23.92;;;12.98;;
6864;SDS011;3471;49.678;8.388;2022-11-20T11:32:48;22.42;;;14.10;;
6864;SDS011;3471;49.678;8.388;2022-11-20T11:35:24;20.73;;;14.25;;
6864;SDS011;3471;49.678;8.388;2022-11-20T11:37:53;19.15;;;14.43;;
6864;SDS011;3471;49.678;8.388;2022-11-20T11:40:26;22.75;;;16.42;;
6864;SDS011;3471;49.678;8.388;2022-11-20T11:42:57;17.10;;;13.80;;
6864;SDS011;3471;49.678;8.388;2022-11-20T11:45:26;19.30;;;13.75;;
6864;SDS011;3471;49.678;8.388;2022-11-20T11:47:52;20.58;;;15.52;;
6864;SDS011;3471;49.678;8.388;2022-11-20T11:50:21;22.13;;;14.52;;
6864;SDS011;3471;49.678;8.388;2022-11-20T11:53:08;19.35;;;12.95;;
6864;SDS011;3471;49.678;8.388;2022-11-20T11:55:44;16.65;;;13.57;;
6864;SDS011;3471;49.678;8.388;2022-11-20T12:00:36;15.25;;;13.35;;
6864;SDS011;3471;49.678;8.388;2022-11-20T12:06:05;17.92;;;14.10;;
6864;SDS011;3471;49.678;8.388;2022-11-20T12:08:43;19.25;;;12.02;;
6864;SDS011;3471;49.678;8.388;2022-11-20T12:11:18;25.63;;;17.30;;
6864;SDS011;3471;49.678;8.388;2022-11-20T12:14:11;14.93;;;13.18;;
6864;SDS011;3471;49.678;8.388;2022-11-20T12:16:44;27.90;;;15.00;;
6864;SDS011;3471;49.678;8.388;2022-11-20T12:19:12;20.85;;;14.25;;
6864;SDS011;3471;49.678;8.388;2022-11-20T12:34:52;16.10;;;13.23;;
6864;SDS011;3471;49.678;8.388;2022-11-20T12:42:55;19.33;;;16.27;;
6864;SDS011;3471;49.678;8.388;2022-11-20T12:45:58;20.23;;;13.40;;
6864;SDS011;3471;49.678;8.388;2022-11-20T12:54:13;22.02;;;11.90;;
6864;SDS011;3471;49.678;8.388;2022-11-20T12:56:57;17.70;;;14.60;;
6864;SDS011;3471;49.678;8.388;2022-11-20T13:10:59;13.40;;;12.00;;
6864;SDS011;3471;49.678;8.388;2022-11-20T13:14:31;16.23;;;11.37;;
6864;SDS011;3471;49.678;8.388;2022-11-20T13:16:53;21.65;;;14.75;;
6864;SDS011;3471;49.678;8.388;2022-11-20T13:19:25;10.93;;;9.70;;
6864;SDS011;3471;49.678;8.388;2022-11-20T13:21:53;16.92;;;11.43;;
6864;SDS011;3471;49.678;8.388;2022-11-20T13:26:44;15.77;;;10.90;;
6864;SDS011;3471;49.678;8.388;2022-11-20T13:29:19;15.35;;;11.80;;
6864;SDS011;3471;49.678;8.388;2022-11-20T13:31:46;19.60;;;13.43;;
6864;SDS011;3471;49.678;8.388;2022-11-20T13:34:25;15.65;;;12.82;;
6864;SDS011;3471;49.678;8.388;2022-11-20T13:36:56;12.90;;;11.52;;
6864;SDS011;3471;49.678;8.388;2022-11-20T13:39:26;16.88;;;11.93;;
6864;SDS011;3471;49.678;8.388;2022-11-20T13:41:54;10.88;;;7.95;;
6864;SDS011;3471;49.678;8.388;2022-11-20T13:44:25;14.93;;;10.18;;
6864;SDS011;3471;49.678;8.388;2022-11-20T13:46:58;13.80;;;9.18;;
6864;SDS011;3471;49.678;8.388;2022-11-20T13:49:30;13.32;;;9.95;;
6864;SDS011;3471;49.678;8.388;2022-11-20T13:52:26;10.32;;;8.20;;
6864;SDS011;3471;49.678;8.388;2022-11-20T13:54:55;14.65;;;11.50;;
6864;SDS011;3471;49.678;8.388;2022-11-20T13:57:57;11.38;;;10.00;;
6864;SDS011;3471;49.678;8.388;2022-11-20T14:00:27;12.80;;;9.82;;
6864;SDS011;3471;49.678;8.388;2022-11-20T14:03:00;10.97;;;9.90;;
6864;SDS011;3471;49.678;8.388;2022-11-20T14:05:36;10.70;;;8.75;;
6864;SDS011;3471;49.678;8.388;2022-11-20T14:08:05;16.60;;;10.98;;
6864;SDS011;3471;49.678;8.388;2022-11-20T14:10:49;13.18;;;9.95;;
6864;SDS011;3471;49.678;8.388;2022-11-20T14:13:18;11.30;;;8.90;;
6864;SDS011;3471;49.678;8.388;2022-11-20T14:15:45;18.58;;;10.60;;
6864;SDS011;3471;49.678;8.388;2022-11-20T14:18:20;16.23;;;9.50;;
6864;SDS011;3471;49.678;8.388;2022-11-20T14:20:46;15.50;;;10.95;;
6864;SDS011;3471;49.678;8.388;2022-11-20T14:23:12;12.17;;;8.07;;
6864;SDS011;3471;49.678;8.388;2022-11-20T14:25:47;13.50;;;9.98;;
6864;SDS011;3471;49.678;8.388;2022-11-20T14:28:18;10.68;;;8.98;;
6864;SDS011;3471;49.678;8.388;2022-11-20T14:30:52;15.63;;;10.90;;
6864;SDS011;3471;49.678;8.388;2022-11-20T14:33:20;16.30;;;10.57;;
6864;SDS011;3471;49.678;8.388;2022-11-20T14:35:50;12.20;;;9.80;;
6864;SDS011;3471;49.678;8.388;2022-11-20T14:38:19;12.13;;;9.85;;
6864;SDS011;3471;49.678;8.388;2022-11-20T14:40:48;13.05;;;8.57;;
6864;SDS011;3471;49.678;8.388;2022-11-20T14:46:00;10.18;;;8.73;;
6864;SDS011;3471;49.678;8.388;2022-11-20T14:51:35;8.47;;;7.03;;
6864;SDS011;3471;49.678;8.388;2022-11-20T14:54:19;6.15;;;5.65;;
6864;SDS011;3471;49.678;8.388;2022-11-20T14:57:01;7.55;;;4.82;;
6864;SDS011;3471;49.678;8.388;2022-11-20T14:59:29;5.80;;;3.55;;
6864;SDS011;3471;49.678;8.388;2022-11-20T15:02:03;5.53;;;4.45;;
6864;SDS011;3471;49.678;8.388;2022-11-20T15:04:48;8.27;;;4.40;;
6864;SDS011;3471;49.678;8.388;2022-11-20T15:10:21;8.38;;;4.38;;
6864;SDS011;3471;49.678;8.388;2022-11-20T15:12:56;3.72;;;2.90;;
6864;SDS011;3471;49.678;8.388;2022-11-20T15:15:50;13.60;;;3.83;;
6864;SDS011;3471;49.678;8.388;2022-11-20T15:18:26;3.47;;;3.17;;
6864;SDS011;3471;49.678;8.388;2022-11-20T15:20:54;4.50;;;2.30;;
6864;SDS011;3471;49.678;8.388;2022-11-20T15:23:25;9.65;;;2.70;;
6864;SDS011;3471;49.678;8.388;2022-11-20T15:25:52;6.03;;;2.97;;
6864;SDS011;3471;49.678;8.388;2022-11-20T15:28:21;2.00;;;1.80;;
6864;SDS011;3471;49.678;8.388;2022-11-20T15:30:54;2.50;;;2.10;;
6864;SDS011;3471;49.678;8.388;2022-11-20T15:33:20;6.70;;;2.20;;
6864;SDS011;3471;49.678;8.388;2022-11-20T15:35:46;1.80;;;1.50;;
6864;SDS011;3471;49.678;8.388;2022-11-20T15:38:11;3.60;;;1.70;;
6864;SDS011;3471;49.678;8.388;2022-11-20T15:40:38;6.00;;;2.42;;
6864;SDS011;3471;49.678;8.388;2022-11-20T15:43:03;2.97;;;1.70;;
6864;SDS011;3471;49.678;8.388;2022-11-20T15:45:32;2.55;;;2.03;;
6864;SDS011;3471;49.678;8.388;2022-11-20T15:48:02;3.50;;;2.07;;
6864;SDS011;3471;49.678;8.388;2022-11-20T15:50:44;3.70;;;2.20;;
6864;SDS011;3471;49.678;8.388;2022-11-20T15:53:21;6.70;;;2.93;;
6864;SDS011;3471;49.678;8.388;2022-11-20T15:55:47;7.78;;;2.40;;
6864;SDS011;3471;49.678;8.388;2022-11-20T15:58:13;2.30;;;1.50;;
6864;SDS011;3471;49.678;8.388;2022-11-20T16:00:39;3.50;;;2.10;;
6864;SDS011;3471;49.678;8.388;2022-11-20T16:03:05;3.80;;;2.10;;
6864;SDS011;3471;49.678;8.388;2022-11-20T16:05:36;2.97;;;1.30;;
6864;SDS011;3471;49.678;8.388;2022-11-20T16:08:02;5.95;;;2.30;;
6864;SDS011;3471;49.678;8.388;2022-11-20T16:10:28;5.95;;;2.10;;
6864;SDS011;3471;49.678;8.388;2022-11-20T16:12:53;3.80;;;1.70;;
6864;SDS011;3471;49.678;8.388;2022-11-20T16:15:38;2.50;;;2.00;;
6864;SDS011;3471;49.678;8.388;2022-11-20T16:18:14;2.20;;;1.70;;
6864;SDS011;3471;49.678;8.388;2022-11-20T16:20:44;3.20;;;1.92;;
6864;SDS011;3471;49.678;8.388;2022-11-20T16:23:11;2.80;;;2.10;;
6864;SDS011;3471;49.678;8.388;2022-11-20T16:25:37;1.77;;;1.60;;
6864;SDS011;3471;49.678;8.388;2022-11-20T16:28:03;2.35;;;2.15;;
6864;SDS011;3471;49.678;8.388;2022-11-20T16:30:28;4.50;;;2.30;;
6864;SDS011;3471;49.678;8.388;2022-11-20T16:32:55;4.00;;;2.50;;
6864;SDS011;3471;49.678;8.388;2022-11-20T16:35:21;3.80;;;1.67;;